Terminal Aerodrome Forecast
Issued by NWS

Home | Current Version | Previous Version | Text Only | Print | Product List | Glossary On
Versions: 1 2 3 4 5 6 7 8 9 10 11 12
822
FTUS45 KABQ 201120
TAFLVS
TAF
KLVS 201120Z 2012/2112 20011KT P6SM SCT100
     FM201500 21015G25KT P6SM FEW100
     FM201730 22025G35KT P6SM FEW070
     FM202300 22015G25KT P6SM FEW070
     FM210200 21010G16KT P6SM SKC=

USA.gov is the U.S. government's official web portal to all federal, state and local government web resources and services.